KFSW

Fort Madison Municipal Airport

Fort Madison, Iowa, USA
METAR KFSW 151855Z AUTO 00000KT 10SM CLR 08/M01 A3014 RMK AO2
Observed Flight Rules
Dec-15 @ 18:55 UTC (9 minutes ago) Visual Flight Rules
Visibility Clouds
10 miles
  • Clear skies
Temperatures Readings
Current 8°C / 46°F
Dewpoint -1°C / 30°F
Humidity 53%
Altimeter 30.14" Hg
Pressure 1021 hPa
Elevation 221
METAR KFSW 151855Z AUTO 00000KT 10SM CLR 08/M01 A3014 RMK AO2
Observed Flight Rules
Dec-15 @ 18:55 UTC
(9 minutes ago)
VFR
Clouds
  • Clear skies
Temperature Dewpoint
8°C / 46°F -1°C / 30°F
Humidity Altimeter Pressure
53% 30.14" Hg 1021 hPa